Time;durP1;ratioP1;P1;durP2;ratioP2;P2;SDS_P1;SDS_P2;PMS_P1;PMS_P2;Temp;Humidity;BMP_temperature;BMP_pressure;BME280_temperature;BME280_humidity;BME280_pressure;Samples;Min_cycle;Max_cycle;Signal;HPM_P1;HPM_P2
2022/01/01 00:01:32;;;;;;;52.78;22.67;;;11.50;99.90;;;;;;5006017;28;20053;-86
2022/01/01 00:03:58;;;;;;;52.25;22.70;;;11.50;99.90;;;;;;5011955;28;20526;-86
2022/01/01 00:06:24;;;;;;;54.15;22.08;;;11.50;99.90;;;;;;4979316;28;20037;-86
2022/01/01 00:08:50;;;;;;;48.83;24.17;;;11.50;99.90;;;;;;4999184;28;20506;-86
2022/01/01 00:11:17;;;;;;;51.38;21.80;;;11.50;99.90;;;;;;4992840;28;20034;-86
2022/01/01 00:13:43;;;;;;;52.15;22.50;;;11.50;99.90;;;;;;5019568;28;20036;-86
2022/01/01 00:16:09;;;;;;;52.40;24.00;;;11.50;99.90;;;;;;5009069;28;20045;-85
2022/01/01 00:18:37;;;;;;;50.25;21.33;;;11.50;99.90;;;;;;4982328;28;20359;-86
2022/01/01 00:21:04;;;;;;;47.42;23.05;;;11.50;99.90;;;;;;5022981;28;20053;-85
2022/01/01 00:23:30;;;;;;;48.33;22.77;;;11.50;99.90;;;;;;5008344;28;20045;-86
2022/01/01 00:25:57;;;;;;;50.83;24.20;;;11.50;99.90;;;;;;5027807;28;20064;-86
2022/01/01 00:28:23;;;;;;;51.78;24.50;;;11.50;99.90;;;;;;5011375;28;20049;-86
2022/01/01 00:30:51;;;;;;;52.10;26.40;;;11.40;99.90;;;;;;4978615;28;20140;-85
2022/01/01 00:33:17;;;;;;;51.83;28.67;;;11.50;99.90;;;;;;5000693;28;20048;-84
2022/01/01 00:35:43;;;;;;;57.60;31.10;;;11.40;99.90;;;;;;4977273;28;20045;-86
2022/01/01 00:38:09;;;;;;;64.47;33.53;;;11.40;99.90;;;;;;4965853;28;20077;-85
2022/01/01 00:40:35;;;;;;;66.53;36.53;;;11.40;99.90;;;;;;4980178;28;20120;-86
2022/01/01 00:43:02;;;;;;;64.80;36.92;;;11.50;99.90;;;;;;5013504;28;20149;-86
2022/01/01 00:45:28;;;;;;;70.85;39.15;;;11.50;99.90;;;;;;5018299;28;20112;-86
2022/01/01 00:47:54;;;;;;;72.88;41.33;;;11.50;99.90;;;;;;5006919;28;20151;-85
2022/01/01 00:50:20;;;;;;;71.00;42.80;;;11.40;99.90;;;;;;4994952;28;20045;-85
2022/01/01 00:52:49;;;;;;;73.22;45.80;;;11.40;99.90;;;;;;4977133;28;20045;-86
2022/01/01 00:55:15;;;;;;;79.07;47.00;;;11.40;99.90;;;;;;5017666;28;20576;-86
2022/01/01 00:57:41;;;;;;;80.05;49.80;;;11.40;99.90;;;;;;5011227;28;20041;-86
2022/01/01 01:00:08;;;;;;;75.90;48.97;;;11.40;99.90;;;;;;4978218;28;20041;-86
2022/01/01 01:02:34;;;;;;;81.63;50.75;;;11.40;99.90;;;;;;5008012;28;20049;-86
2022/01/01 01:05:00;;;;;;;85.82;49.95;;;11.40;99.90;;;;;;4979483;28;20119;-85
2022/01/01 01:07:27;;;;;;;76.43;52.13;;;11.30;99.90;;;;;;5006908;28;20045;-85
2022/01/01 01:09:53;;;;;;;86.28;53.03;;;11.30;99.90;;;;;;4972276;28;20144;-86
2022/01/01 01:12:24;;;;;;;75.13;53.20;;;11.30;99.90;;;;;;4981198;28;20046;-85
2022/01/01 01:14:52;;;;;;;92.70;56.53;;;11.20;99.90;;;;;;4970025;28;20040;-85
2022/01/01 01:17:18;;;;;;;93.10;58.08;;;11.20;99.90;;;;;;4995619;28;20076;-85
2022/01/01 01:19:44;;;;;;;90.93;59.75;;;11.20;99.90;;;;;;4995435;28;20049;-86
2022/01/01 01:22:10;;;;;;;100.50;64.35;;;11.20;99.90;;;;;;4979471;28;20460;-87
2022/01/01 01:24:39;;;;;;;100.43;69.53;;;11.10;99.90;;;;;;4978591;28;20153;-86
2022/01/01 01:27:06;;;;;;;102.13;70.80;;;11.10;99.90;;;;;;5002203;28;20048;-86
2022/01/01 01:29:36;;;;;;;108.57;71.18;;;11.00;99.90;;;;;;5014654;28;20152;-86
2022/01/01 01:32:03;;;;;;;106.45;73.38;;;11.00;99.90;;;;;;5023689;28;20128;-86
2022/01/01 01:34:29;;;;;;;102.72;71.22;;;11.00;99.90;;;;;;4978897;28;20057;-86
2022/01/01 01:36:55;;;;;;;103.55;68.03;;;11.00;99.90;;;;;;5028544;28;20402;-86
2022/01/01 01:39:21;;;;;;;95.57;63.45;;;11.00;99.90;;;;;;4993392;28;20132;-86
2022/01/01 01:41:49;;;;;;;95.10;58.15;;;11.10;99.90;;;;;;4994365;28;20129;-86
2022/01/01 01:44:28;;;;;;;83.43;56.15;;;11.10;99.90;;;;;;5001881;28;20045;-85
2022/01/01 01:46:54;;;;;;;82.72;53.63;;;11.10;99.90;;;;;;5042752;28;20041;-86
2022/01/01 01:49:20;;;;;;;83.55;52.15;;;11.10;99.90;;;;;;5011368;28;20041;-86
2022/01/01 01:51:46;;;;;;;89.68;49.50;;;11.10;99.90;;;;;;4978074;28;20041;-85
2022/01/01 01:54:13;;;;;;;91.10;50.25;;;11.10;99.90;;;;;;5010328;28;20037;-85
2022/01/01 01:56:39;;;;;;;79.90;49.25;;;11.10;99.90;;;;;;4978092;28;20179;-86
2022/01/01 01:59:06;;;;;;;77.95;48.47;;;11.00;99.90;;;;;;4961720;28;20048;-86
2022/01/01 02:01:32;;;;;;;83.35;49.42;;;11.00;99.90;;;;;;4972633;28;20052;-86
2022/01/01 02:03:58;;;;;;;90.47;47.72;;;11.00;99.90;;;;;;4993138;28;20048;-85
2022/01/01 02:06:25;;;;;;;77.20;46.28;;;10.90;99.90;;;;;;5041440;28;20034;-83
2022/01/01 02:08:52;;;;;;;76.68;45.67;;;10.90;99.90;;;;;;5026818;28;20050;-85
2022/01/01 02:11:21;;;;;;;85.65;47.88;;;10.90;99.90;;;;;;5007605;28;20053;-86
2022/01/01 02:18:52;;;;;;;88.43;49.28;;;10.90;99.90;;;;;;5011515;28;20073;-86
2022/01/01 02:21:20;;;;;;;82.15;48.65;;;11.00;99.90;;;;;;4988885;28;20106;-85
2022/01/01 02:23:48;;;;;;;85.25;49.05;;;11.00;99.90;;;;;;5032154;28;20060;-85
2022/01/01 02:26:16;;;;;;;91.22;48.08;;;11.00;99.90;;;;;;5010492;28;20049;-85
2022/01/01 02:28:44;;;;;;;87.57;50.83;;;11.10;99.90;;;;;;5026973;28;20061;-86
2022/01/01 02:31:10;;;;;;;86.35;52.15;;;11.10;99.90;;;;;;5011430;28;20045;-86
2022/01/01 02:33:37;;;;;;;92.32;52.72;;;11.10;99.90;;;;;;5024840;28;20479;-85
2022/01/01 02:36:05;;;;;;;97.80;56.50;;;11.10;99.90;;;;;;5010910;28;20060;-86
2022/01/01 02:38:35;;;;;;;88.85;53.10;;;11.20;99.90;;;;;;4997576;28;20700;-86
2022/01/01 02:41:02;;;;;;;98.28;59.30;;;11.20;99.90;;;;;;4994638;28;20208;-85
2022/01/01 02:43:31;;;;;;;88.22;58.35;;;11.20;99.90;;;;;;4964986;28;20074;-86
2022/01/01 02:45:57;;;;;;;94.85;62.50;;;11.20;99.90;;;;;;5024350;28;20044;-85
2022/01/01 02:48:23;;;;;;;100.15;59.95;;;11.20;99.90;;;;;;4996644;28;20046;-85
2022/01/01 02:50:52;;;;;;;102.68;63.55;;;11.20;99.90;;;;;;4997417;28;20455;-85
2022/01/01 02:53:18;;;;;;;108.38;68.53;;;11.20;99.90;;;;;;4996417;28;20057;-85
2022/01/01 02:55:46;;;;;;;114.82;72.40;;;11.20;99.90;;;;;;4986271;28;20048;-86
2022/01/01 02:58:12;;;;;;;114.30;71.75;;;11.20;99.90;;;;;;4995847;28;20081;-86
2022/01/01 03:00:40;;;;;;;106.30;70.95;;;11.20;99.90;;;;;;4997531;28;20516;-85
2022/01/01 03:03:06;;;;;;;119.43;75.70;;;11.20;99.90;;;;;;4986523;28;20061;-86
2022/01/01 03:05:33;;;;;;;106.82;73.47;;;11.10;99.90;;;;;;4963763;28;20063;-86
2022/01/01 03:07:59;;;;;;;111.95;77.57;;;11.10;99.90;;;;;;4998279;28;20041;-85
2022/01/01 03:10:25;;;;;;;124.82;81.00;;;11.10;99.90;;;;;;5012653;28;20490;-85
2022/01/01 03:12:51;;;;;;;126.45;82.45;;;11.00;99.90;;;;;;4980522;28;20042;-85
2022/01/01 03:15:18;;;;;;;119.60;84.55;;;11.00;99.90;;;;;;4980184;28;20061;-85
2022/01/01 03:17:44;;;;;;;119.57;88.00;;;11.00;99.90;;;;;;4980720;28;20049;-88
2022/01/01 03:20:10;;;;;;;126.93;87.75;;;11.00;99.90;;;;;;4997069;28;20447;-86
2022/01/01 03:22:36;;;;;;;124.82;89.38;;;11.00;99.90;;;;;;5011663;28;20046;-84
2022/01/01 03:25:03;;;;;;;121.63;87.88;;;11.00;99.90;;;;;;4980856;28;20083;-85
2022/01/01 03:27:29;;;;;;;127.70;91.00;;;11.00;99.90;;;;;;4995875;28;20049;-85
2022/01/01 03:29:55;;;;;;;126.82;89.28;;;11.00;99.90;;;;;;4987411;28;20037;-85
2022/01/01 03:32:21;;;;;;;126.38;89.28;;;11.00;99.90;;;;;;4980162;28;20049;-85
2022/01/01 03:34:47;;;;;;;129.07;89.78;;;11.00;99.90;;;;;;5010944;28;20115;-86
2022/01/01 03:37:13;;;;;;;132.70;93.70;;;11.00;99.90;;;;;;5011502;28;20049;-85
2022/01/01 03:39:40;;;;;;;137.88;96.72;;;11.00;99.90;;;;;;4998538;28;20048;-85
2022/01/01 03:42:06;;;;;;;138.52;96.43;;;11.00;99.90;;;;;;5005086;28;20048;-86
2022/01/01 03:44:32;;;;;;;133.85;91.78;;;11.00;99.90;;;;;;5002935;28;20061;-86
2022/01/01 03:47:09;;;;;;;130.13;93.38;;;10.90;99.90;;;;;;4986598;28;20049;-86
2022/01/01 03:49:37;;;;;;;128.88;92.68;;;10.90;99.90;;;;;;4999368;28;20076;-85
2022/01/01 03:52:03;;;;;;;137.88;93.35;;;10.90;99.90;;;;;;4996254;28;20048;-86
2022/01/01 03:54:29;;;;;;;135.85;94.00;;;11.00;99.90;;;;;;5018781;28;20053;-84
2022/01/01 03:56:56;;;;;;;136.15;93.80;;;11.00;99.90;;;;;;5010010;28;20033;-83
2022/01/01 03:59:23;;;;;;;133.88;96.43;;;10.90;99.90;;;;;;5036721;28;20088;-85
2022/01/01 04:01:50;;;;;;;133.13;93.07;;;10.90;99.90;;;;;;5024029;28;20045;-86
2022/01/01 04:04:16;;;;;;;132.50;92.10;;;10.90;99.90;;;;;;4999511;28;20054;-86
2022/01/01 04:06:42;;;;;;;127.30;89.07;;;11.00;99.90;;;;;;4998990;28;20115;-85
2022/01/01 04:09:08;;;;;;;132.70;90.63;;;11.00;99.90;;;;;;5029797;28;20041;-86
2022/01/01 04:11:34;;;;;;;135.27;93.03;;;11.00;99.90;;;;;;4988216;28;20045;-85
2022/01/01 04:14:00;;;;;;;133.57;89.65;;;11.00;99.90;;;;;;5011317;28;20524;-85
2022/01/01 04:16:27;;;;;;;132.10;93.38;;;11.00;99.90;;;;;;5008389;28;20056;-85
2022/01/01 04:18:53;;;;;;;129.90;90.53;;;11.00;99.90;;;;;;4998523;28;20129;-86
2022/01/01 04:21:19;;;;;;;131.07;90.25;;;11.00;99.90;;;;;;5015111;28;20051;-85
2022/01/01 04:23:45;;;;;;;135.38;91.63;;;11.00;99.90;;;;;;4996527;28;20057;-85
2022/01/01 04:26:11;;;;;;;134.68;91.38;;;11.00;99.90;;;;;;4980118;28;20049;-86
2022/01/01 04:28:40;;;;;;;133.90;91.18;;;11.00;99.90;;;;;;5012414;28;20526;-86
2022/01/01 04:31:06;;;;;;;126.60;87.43;;;10.90;99.90;;;;;;5012119;28;20042;-85
2022/01/01 04:33:33;;;;;;;130.02;86.63;;;11.00;99.90;;;;;;4981391;28;20040;-86
2022/01/01 04:35:59;;;;;;;125.88;88.25;;;11.10;99.90;;;;;;4965060;28;20064;-85
2022/01/01 04:40:54;;;;;;;130.35;86.38;;;11.00;99.90;;;;;;4980786;28;20052;-85
2022/01/01 04:43:20;;;;;;;132.13;87.80;;;11.10;99.90;;;;;;4993955;28;20041;-86
2022/01/01 04:45:46;;;;;;;128.77;82.25;;;11.10;99.90;;;;;;5011943;28;20057;-85
2022/01/01 04:48:12;;;;;;;121.32;81.60;;;11.10;99.90;;;;;;5002629;28;20042;-86
2022/01/01 04:50:41;;;;;;;119.95;81.60;;;11.10;99.90;;;;;;4979984;28;20045;-83
2022/01/01 04:53:07;;;;;;;118.65;79.47;;;11.10;99.90;;;;;;5001720;28;20088;-86
2022/01/01 04:55:34;;;;;;;117.88;80.05;;;11.10;99.90;;;;;;5009867;28;20068;-86
2022/01/01 04:58:00;;;;;;;128.02;80.72;;;11.10;99.90;;;;;;4996463;28;20062;-86
2022/01/01 05:00:26;;;;;;;120.15;82.07;;;11.10;99.90;;;;;;4982282;28;20747;-85
2022/01/01 05:02:52;;;;;;;119.43;77.70;;;11.10;99.90;;;;;;4987309;28;20525;-86
2022/01/01 05:05:19;;;;;;;122.38;81.75;;;11.10;99.90;;;;;;4984307;28;20156;-86
2022/01/01 05:07:45;;;;;;;117.47;78.95;;;11.10;99.90;;;;;;5013673;28;20041;-86
2022/01/01 05:10:11;;;;;;;127.93;81.55;;;11.20;99.90;;;;;;4992602;28;20121;-86
2022/01/01 05:12:37;;;;;;;123.90;78.60;;;11.20;99.90;;;;;;5025977;28;20052;-85
2022/01/01 05:15:03;;;;;;;114.93;77.20;;;11.20;99.90;;;;;;5011115;28;20042;-85
2022/01/01 05:17:29;;;;;;;119.05;76.20;;;11.30;99.90;;;;;;4996331;28;20057;-85
2022/01/01 05:19:55;;;;;;;119.95;78.43;;;11.30;99.90;;;;;;5001664;28;20559;-86
2022/01/01 05:22:21;;;;;;;124.05;78.00;;;11.30;99.90;;;;;;4994519;28;20125;-86
2022/01/01 05:24:48;;;;;;;118.35;75.30;;;11.30;99.90;;;;;;5002087;28;20045;-85
2022/01/01 05:27:14;;;;;;;110.82;73.80;;;11.30;99.90;;;;;;5002051;28;20072;-86
2022/01/01 05:29:40;;;;;;;111.20;70.38;;;11.30;99.90;;;;;;4978401;28;20052;-87
2022/01/01 05:32:06;;;;;;;102.75;68.53;;;11.20;99.90;;;;;;4978716;28;20033;-86
2022/01/01 05:34:32;;;;;;;108.13;65.75;;;11.30;99.90;;;;;;5014506;28;20049;-86
2022/01/01 05:36:59;;;;;;;105.03;65.47;;;11.20;99.90;;;;;;5011875;28;20049;-86
2022/01/01 05:39:25;;;;;;;96.65;60.50;;;11.30;99.90;;;;;;5008877;28;20044;-85
2022/01/01 05:41:54;;;;;;;112.32;61.47;;;11.20;99.90;;;;;;4980168;28;20037;-85
2022/01/01 05:44:21;;;;;;;108.25;61.50;;;11.20;99.90;;;;;;4985234;28;20041;-85
2022/01/01 05:46:50;;;;;;;105.32;58.65;;;11.20;99.90;;;;;;5006621;28;20025;-84
2022/01/01 05:49:16;;;;;;;107.63;57.25;;;11.20;99.90;;;;;;5027955;28;20088;-86
2022/01/01 05:51:42;;;;;;;96.82;49.28;;;11.20;99.90;;;;;;5025519;28;20041;-86
2022/01/01 05:54:08;;;;;;;92.68;49.72;;;11.20;99.90;;;;;;4994503;28;20043;-85
2022/01/01 05:56:34;;;;;;;94.72;50.75;;;11.20;99.90;;;;;;4963546;28;20128;-86
2022/01/01 05:59:00;;;;;;;92.72;47.00;;;11.20;99.90;;;;;;4978691;28;20049;-85
2022/01/01 06:01:26;;;;;;;89.70;49.35;;;11.20;99.90;;;;;;4973893;28;20186;-85
2022/01/01 06:03:53;;;;;;;92.95;48.65;;;11.20;99.90;;;;;;4996995;28;20410;-84
2022/01/01 06:06:19;;;;;;;80.65;45.10;;;11.20;99.90;;;;;;4978186;28;20065;-86
2022/01/01 06:08:45;;;;;;;79.70;44.17;;;11.20;99.90;;;;;;4978252;28;20041;-86
2022/01/01 06:11:12;;;;;;;81.22;41.92;;;11.20;99.90;;;;;;5000437;28;20124;-85
2022/01/01 06:13:39;;;;;;;77.72;39.67;;;11.30;99.90;;;;;;4994251;28;20120;-86
2022/01/01 06:16:05;;;;;;;82.60;39.17;;;11.30;99.90;;;;;;5002538;28;20504;-84
2022/01/01 06:18:31;;;;;;;68.75;38.75;;;11.30;99.90;;;;;;4979694;28;20037;-85
2022/01/01 06:20:57;;;;;;;76.53;37.97;;;11.30;99.90;;;;;;5017436;28;20061;-86
2022/01/01 06:23:24;;;;;;;70.80;36.53;;;11.30;99.90;;;;;;4962722;28;20049;-86
2022/01/01 06:25:50;;;;;;;74.25;37.80;;;11.30;99.90;;;;;;5008964;28;20049;-84
2022/01/01 06:28:16;;;;;;;79.03;36.95;;;11.30;99.90;;;;;;4962069;28;20050;-85
2022/01/01 06:30:42;;;;;;;79.38;38.08;;;11.40;99.90;;;;;;4977658;28;20115;-86
2022/01/01 06:33:14;;;;;;;75.65;36.53;;;11.30;99.90;;;;;;4976682;28;20045;-85
2022/01/01 06:35:44;;;;;;;68.50;35.92;;;11.30;99.90;;;;;;5022237;28;20122;-85
2022/01/01 06:38:11;;;;;;;76.97;36.20;;;11.30;99.90;;;;;;4977552;28;21030;-84
2022/01/01 06:40:39;;;;;;;68.75;37.35;;;11.30;99.90;;;;;;4978375;28;20123;-85
2022/01/01 06:43:11;;;;;;;70.70;35.20;;;11.40;99.90;;;;;;5001379;28;20176;-81
2022/01/01 06:45:38;;;;;;;74.53;36.17;;;11.40;99.90;;;;;;4983855;28;20060;-84
2022/01/01 06:48:04;;;;;;;70.53;35.60;;;11.40;99.90;;;;;;4982579;28;20041;-84
2022/01/01 06:50:31;;;;;;;66.05;33.53;;;11.40;99.90;;;;;;4990768;28;20045;-85
2022/01/01 06:52:57;;;;;;;69.30;34.38;;;11.40;99.90;;;;;;5024450;28;20049;-85
2022/01/01 06:55:23;;;;;;;70.18;34.35;;;11.40;99.90;;;;;;4938554;28;20041;-84
2022/01/01 06:57:49;;;;;;;71.28;35.10;;;11.40;99.90;;;;;;4991984;28;20053;-85
2022/01/01 07:00:17;;;;;;;69.30;34.63;;;11.50;99.90;;;;;;4999079;28;20049;-84
2022/01/01 07:02:45;;;;;;;73.68;34.22;;;11.50;99.90;;;;;;4967748;28;20093;-84
2022/01/01 07:05:12;;;;;;;79.90;34.55;;;11.50;99.90;;;;;;4988011;28;20057;-84
2022/01/01 07:07:40;;;;;;;70.90;34.97;;;11.50;99.90;;;;;;5016910;28;20084;-84
2022/01/01 07:10:07;;;;;;;67.93;35.03;;;11.50;99.90;;;;;;5003723;28;20044;-84
2022/01/01 07:12:35;;;;;;;74.35;35.03;;;11.60;99.90;;;;;;4987769;28;20458;-86
2022/01/01 07:15:03;;;;;;;69.50;34.60;;;11.50;99.90;;;;;;4983068;28;20041;-84
2022/01/01 07:17:29;;;;;;;68.72;33.42;;;11.50;99.90;;;;;;5004043;28;20418;-83
2022/01/01 07:19:55;;;;;;;68.47;33.75;;;11.60;99.90;;;;;;4974462;28;20548;-86
2022/01/01 07:22:21;;;;;;;68.55;34.17;;;11.60;99.90;;;;;;5007730;28;20045;-84
2022/01/01 07:24:49;;;;;;;59.95;32.72;;;11.70;99.90;;;;;;4996290;28;20045;-85
2022/01/01 07:27:17;;;;;;;59.78;32.55;;;11.70;99.90;;;;;;4980385;28;20520;-85
2022/01/01 07:29:43;;;;;;;60.33;33.53;;;11.70;99.90;;;;;;5025574;28;20556;-85
2022/01/01 07:32:09;;;;;;;67.65;32.15;;;11.70;99.90;;;;;;5007564;28;20076;-84
2022/01/01 07:34:35;;;;;;;57.55;34.03;;;11.70;99.90;;;;;;4996543;28;20128;-85
2022/01/01 07:37:01;;;;;;;67.90;34.35;;;11.70;99.90;;;;;;4997416;28;20056;-86
2022/01/01 07:39:28;;;;;;;65.97;34.00;;;11.70;99.90;;;;;;4992238;28;20041;-87
2022/01/01 07:41:55;;;;;;;57.88;33.45;;;11.70;99.90;;;;;;5009749;28;20181;-85
2022/01/01 07:44:21;;;;;;;58.97;33.60;;;11.70;99.90;;;;;;5030893;28;20029;-85
2022/01/01 07:46:50;;;;;;;62.80;34.50;;;11.70;99.90;;;;;;4968932;28;20045;-85
2022/01/01 07:49:17;;;;;;;62.63;34.88;;;11.70;99.90;;;;;;4987987;28;20081;-84
2022/01/01 07:51:43;;;;;;;60.83;35.05;;;11.70;99.90;;;;;;4975372;28;20504;-85
2022/01/01 07:54:09;;;;;;;63.97;34.58;;;11.70;99.90;;;;;;4994624;28;20041;-85
2022/01/01 07:56:35;;;;;;;56.30;33.55;;;11.70;99.90;;;;;;5007671;28;20077;-85
2022/01/01 07:59:01;;;;;;;69.20;35.45;;;11.70;99.90;;;;;;4994747;28;20762;-84
2022/01/01 08:01:27;;;;;;;53.45;32.38;;;11.70;99.90;;;;;;5012190;28;20052;-84
2022/01/01 08:03:56;;;;;;;64.75;35.65;;;11.70;99.90;;;;;;4963344;28;20506;-84
2022/01/01 08:06:22;;;;;;;60.88;32.67;;;11.70;99.90;;;;;;4979950;28;20776;-84
2022/01/01 08:08:49;;;;;;;57.85;33.72;;;11.80;99.90;;;;;;4991232;28;20524;-84
2022/01/01 08:11:15;;;;;;;66.78;34.80;;;11.80;99.90;;;;;;4993581;28;20136;-84
2022/01/01 08:13:41;;;;;;;58.80;33.85;;;11.70;99.90;;;;;;4979887;28;20034;-84
2022/01/01 08:16:07;;;;;;;64.80;35.42;;;11.70;99.90;;;;;;4979766;28;20552;-84
2022/01/01 08:18:33;;;;;;;59.38;35.90;;;11.70;99.90;;;;;;5011407;28;20052;-84
2022/01/01 08:20:59;;;;;;;64.90;37.13;;;11.80;99.90;;;;;;4979311;28;20049;-85
2022/01/01 08:23:25;;;;;;;61.60;34.95;;;11.80;99.90;;;;;;4980134;28;20041;-89
2022/01/01 08:25:51;;;;;;;69.90;37.30;;;11.80;99.90;;;;;;4980649;28;20045;-88
2022/01/01 08:28:17;;;;;;;61.88;36.50;;;11.70;99.90;;;;;;5030349;28;20057;-89
2022/01/01 08:30:44;;;;;;;58.63;34.22;;;11.70;99.90;;;;;;5012578;28;20056;-84
2022/01/01 08:33:10;;;;;;;62.85;36.58;;;11.80;99.90;;;;;;4990998;28;20094;-88
2022/01/01 08:35:36;;;;;;;63.58;36.92;;;11.80;99.90;;;;;;4988103;28;20038;-85
2022/01/01 08:38:04;;;;;;;61.25;38.08;;;11.80;99.90;;;;;;5002151;28;20048;-87
2022/01/01 08:40:31;;;;;;;67.65;38.72;;;11.80;99.90;;;;;;5007191;28;20052;-88
2022/01/01 08:42:58;;;;;;;66.70;39.47;;;11.80;99.90;;;;;;5017325;28;20064;-88
2022/01/01 08:45:24;;;;;;;70.03;41.40;;;11.80;99.90;;;;;;5001891;28;20146;-87
2022/01/01 08:47:51;;;;;;;66.05;40.78;;;11.80;99.90;;;;;;5011762;28;20110;-87
2022/01/01 08:50:18;;;;;;;61.70;40.42;;;11.80;99.90;;;;;;4995344;28;20041;-86
2022/01/01 08:52:44;;;;;;;70.88;41.78;;;11.80;99.90;;;;;;4995830;28;20088;-87
2022/01/01 08:55:11;;;;;;;65.28;43.33;;;11.90;99.90;;;;;;4980137;28;20045;-86
2022/01/01 08:57:37;;;;;;;73.80;40.47;;;11.90;99.90;;;;;;4971046;28;20052;-85
2022/01/01 09:00:07;;;;;;;66.40;40.08;;;11.90;99.90;;;;;;5006013;28;20485;-86
2022/01/01 09:02:34;;;;;;;62.35;39.63;;;11.90;99.90;;;;;;4978817;28;20102;-85
2022/01/01 09:05:00;;;;;;;64.13;40.00;;;11.90;99.90;;;;;;5012958;28;20464;-85
2022/01/01 09:07:29;;;;;;;66.22;40.72;;;12.00;99.90;;;;;;4993357;28;20077;-87
2022/01/01 09:10:00;;;;;;;63.20;40.15;;;12.00;99.90;;;;;;5009254;28;20815;-87
2022/01/01 09:12:27;;;;;;;62.47;39.45;;;12.00;99.90;;;;;;4980921;28;20041;-87
2022/01/01 09:14:55;;;;;;;63.15;40.78;;;12.00;99.90;;;;;;4985731;28;20089;-88
2022/01/01 09:17:21;;;;;;;62.15;38.92;;;12.10;99.90;;;;;;4997173;28;20048;-87
2022/01/01 09:19:48;;;;;;;59.53;38.03;;;12.10;99.90;;;;;;4978522;28;20617;-88
2022/01/01 09:22:14;;;;;;;56.58;37.22;;;12.10;99.90;;;;;;5020922;28;20049;-86
2022/01/01 09:24:40;;;;;;;55.50;36.85;;;12.20;99.90;;;;;;4959090;28;20444;-85
2022/01/01 09:27:07;;;;;;;55.22;35.60;;;12.20;99.90;;;;;;4979416;28;20883;-83
2022/01/01 09:29:34;;;;;;;51.38;32.33;;;12.30;99.90;;;;;;4993712;28;20502;-85
2022/01/01 09:32:00;;;;;;;45.03;31.98;;;12.30;99.90;;;;;;4982674;28;20051;-87
2022/01/01 09:34:26;;;;;;;54.67;33.30;;;12.40;99.90;;;;;;5015228;28;20045;-87
2022/01/01 09:36:54;;;;;;;53.45;32.20;;;12.40;99.90;;;;;;4999360;28;20041;-88
2022/01/01 09:39:21;;;;;;;44.90;28.65;;;12.40;99.90;;;;;;5011130;28;20033;-86
2022/01/01 09:41:47;;;;;;;49.30;30.42;;;12.50;99.90;;;;;;5070512;28;20038;-85
2022/01/01 09:44:16;;;;;;;47.30;28.13;;;12.60;99.90;;;;;;5041693;28;20052;-87
2022/01/01 09:46:46;;;;;;;42.55;26.90;;;12.60;99.90;;;;;;5001292;28;20079;-86
2022/01/01 09:49:17;;;;;;;52.83;27.42;;;12.60;99.90;;;;;;4995441;28;20033;-87
2022/01/01 09:51:44;;;;;;;39.75;24.42;;;12.70;99.90;;;;;;5012720;28;20041;-85
2022/01/01 09:54:11;;;;;;;38.55;25.17;;;12.70;99.90;;;;;;4993579;28;20432;-84
2022/01/01 09:56:39;;;;;;;38.03;23.58;;;12.70;99.90;;;;;;4993739;28;20046;-85
2022/01/01 09:59:05;;;;;;;39.05;23.70;;;12.80;99.90;;;;;;5044467;28;20457;-86
2022/01/01 10:01:32;;;;;;;31.73;21.55;;;12.80;99.90;;;;;;5010567;28;20058;-86
2022/01/01 10:03:59;;;;;;;36.10;21.40;;;12.80;99.90;;;;;;5009892;28;20115;-86
2022/01/01 10:06:30;;;;;;;27.42;20.00;;;12.80;99.90;;;;;;4994005;28;20402;-86
2022/01/01 10:08:59;;;;;;;31.48;20.17;;;12.90;99.90;;;;;;5026573;28;20069;-85
2022/01/01 10:11:26;;;;;;;34.65;20.13;;;12.80;99.90;;;;;;4995749;28;20046;-86
2022/01/01 10:13:53;;;;;;;28.17;17.77;;;12.80;99.90;;;;;;5009749;28;20044;-85
2022/01/01 10:16:20;;;;;;;28.67;18.38;;;12.80;99.90;;;;;;5026331;28;20045;-86
2022/01/01 10:18:49;;;;;;;24.52;16.90;;;12.80;99.90;;;;;;4971058;28;20049;-86
2022/01/01 10:21:18;;;;;;;28.13;17.08;;;12.80;99.90;;;;;;5006592;28;20076;-86
2022/01/01 10:23:49;;;;;;;23.85;15.55;;;12.70;99.90;;;;;;5026351;28;20478;-86
2022/01/01 10:29:08;;;;;;;29.85;14.98;;;12.70;99.90;;;;;;5025229;28;20135;-85
2022/01/01 10:31:35;;;;;;;26.65;14.80;;;12.70;99.90;;;;;;5010459;28;20095;-85
2022/01/01 10:34:09;;;;;;;26.50;14.45;;;12.70;99.90;;;;;;5010920;28;20041;-85
2022/01/01 10:36:36;;;;;;;22.95;13.80;;;12.60;99.90;;;;;;4993794;28;20500;-85
2022/01/01 10:39:10;;;;;;;23.35;13.02;;;12.60;99.90;;;;;;5001669;28;20056;-85
2022/01/01 10:42:10;;;;;;;23.02;13.55;;;12.60;99.90;;;;;;5009991;28;20083;-86
2022/01/01 10:44:38;;;;;;;27.02;14.60;;;12.60;99.90;;;;;;5007653;28;20099;-86
2022/01/01 10:47:12;;;;;;;20.52;11.25;;;12.60;99.90;;;;;;4994080;28;20037;-86
2022/01/01 10:52:18;;;;;;;22.70;11.73;;;12.70;99.90;;;;;;4996771;28;20182;-85
2022/01/01 10:54:52;;;;;;;22.40;11.88;;;12.70;99.90;;;;;;4999404;28;20370;-86
2022/01/01 10:57:25;;;;;;;20.05;10.63;;;12.70;99.90;;;;;;4997061;28;20053;-86
2022/01/01 11:00:07;;;;;;;21.23;12.07;;;12.70;99.90;;;;;;5031313;28;20095;-86
2022/01/01 11:02:39;;;;;;;24.33;11.68;;;12.70;99.90;;;;;;5030907;28;20075;-86
2022/01/01 11:05:06;;;;;;;22.90;11.50;;;12.70;99.90;;;;;;5011348;28;20529;-86
2022/01/01 11:07:33;;;;;;;19.48;11.23;;;12.80;99.90;;;;;;4998831;28;20041;-86
2022/01/01 11:09:59;;;;;;;21.20;10.85;;;12.80;99.90;;;;;;4996045;28;20055;-86
2022/01/01 11:12:27;;;;;;;22.45;11.02;;;12.80;99.90;;;;;;5046867;28;20042;-86
2022/01/01 11:14:55;;;;;;;19.33;10.75;;;12.80;99.90;;;;;;5017673;28;20509;-87
2022/01/01 11:17:23;;;;;;;18.80;11.00;;;12.80;99.90;;;;;;5009013;28;20107;-86
2022/01/01 11:19:49;;;;;;;19.05;10.18;;;12.80;99.90;;;;;;5024417;28;20107;-89
2022/01/01 11:22:18;;;;;;;20.90;11.88;;;12.80;99.90;;;;;;4999781;28;20584;-89
2022/01/01 11:24:46;;;;;;;21.30;9.90;;;12.80;99.90;;;;;;4983368;28;20416;-90
2022/01/01 11:27:12;;;;;;;21.50;10.65;;;12.80;99.90;;;;;;5012258;28;20405;-88
2022/01/01 11:29:48;;;;;;;15.73;8.70;;;12.80;99.90;;;;;;4978568;28;20042;-89
2022/01/01 11:32:19;;;;;;;18.77;9.32;;;12.80;99.90;;;;;;4985284;28;20044;-88
2022/01/01 11:34:47;;;;;;;18.63;9.07;;;12.80;99.90;;;;;;4996924;28;20045;-87
2022/01/01 11:37:14;;;;;;;17.60;10.75;;;12.80;99.90;;;;;;5018452;28;20046;-85
2022/01/01 11:39:42;;;;;;;18.58;8.93;;;12.80;99.90;;;;;;5015788;28;20021;-87
2022/01/01 11:42:10;;;;;;;18.77;10.05;;;12.80;99.90;;;;;;5020422;28;20053;-88
2022/01/01 11:44:36;;;;;;;15.93;9.15;;;12.80;99.90;;;;;;5018354;28;20041;-88
2022/01/01 11:47:06;;;;;;;15.63;7.82;;;12.80;99.90;;;;;;5016495;28;20053;-88
2022/01/01 11:49:33;;;;;;;16.90;8.80;;;12.80;99.90;;;;;;4998535;28;20037;-87
2022/01/01 11:52:01;;;;;;;15.45;8.38;;;12.80;99.90;;;;;;5030352;28;20049;-87
2022/01/01 11:54:34;;;;;;;17.75;8.45;;;12.80;99.90;;;;;;5028991;28;20046;-88
2022/01/01 11:57:05;;;;;;;18.20;8.65;;;12.90;99.90;;;;;;4998040;28;20045;-87
2022/01/01 11:59:31;;;;;;;18.33;8.18;;;12.90;99.90;;;;;;5050159;28;20045;-88
2022/01/01 12:02:18;;;;;;;15.05;8.55;;;12.90;99.90;;;;;;5036862;28;20045;-88
2022/01/01 12:04:50;;;;;;;15.40;8.65;;;13.00;99.90;;;;;;5000382;28;20056;-88
2022/01/01 12:07:16;;;;;;;17.15;8.85;;;13.10;99.90;;;;;;5033448;28;21558;-88
2022/01/01 12:09:58;;;;;;;14.55;8.18;;;13.10;99.90;;;;;;5018662;28;20051;-87
2022/01/01 12:12:45;;;;;;;19.00;8.57;;;13.20;99.90;;;;;;5015764;28;20041;-88
2022/01/01 12:15:26;;;;;;;15.82;8.50;;;13.20;99.90;;;;;;5032418;28;20056;-87
2022/01/01 12:18:07;;;;;;;19.65;8.32;;;13.10;99.90;;;;;;5015121;28;20056;-87
2022/01/01 12:20:54;;;;;;;13.95;8.00;;;13.10;99.90;;;;;;5015205;28;20065;-88
2022/01/01 12:23:22;;;;;;;16.00;8.27;;;13.10;99.90;;;;;;5030419;28;20091;-88
2022/01/01 12:25:50;;;;;;;15.35;8.70;;;13.10;99.90;;;;;;5015456;28;20056;-87
2022/01/01 12:28:18;;;;;;;19.13;9.38;;;13.00;99.90;;;;;;5000287;28;20038;-89
2022/01/01 12:30:52;;;;;;;19.58;8.85;;;13.00;99.90;;;;;;5032004;28;20101;-88
2022/01/01 12:33:37;;;;;;;21.23;13.55;;;13.00;99.90;;;;;;5030859;28;20552;-81
2022/01/01 12:36:17;;;;;;;20.60;15.00;;;13.00;99.90;;;;;;4986438;28;20033;-82
2022/01/01 12:39:00;;;;;;;16.83;10.40;;;13.00;99.90;;;;;;4997725;28;20042;-82
2022/01/01 12:41:34;;;;;;;21.60;10.23;;;12.90;99.90;;;;;;4998054;28;20099;-81